Wetterdaten: Woche 05.09.16 - 11.09.16 (KW36)
Datum Zeit Temp. Aussen Temp. o. S. +5cm Feuchte Auss BlattFeu 1 Luftdruck Regen Sonnenschein Regendauer Solar Windben Empfang
05.09.2016 00:00 17,2 C 16,8 C 15,1 C 87 % 9 lf 1013,4 hPa 0,0 l/m 0,00 h 0,27 h 5 W/m 17,8 km/h (3 Bft) 96,11 %
05.09.2016 01:00 16,8 C 16,4 C 14,8 C 89 % 1 lf 1013,6 hPa 0,0 l/m 0,00 h 0,10 h 5 W/m 16,8 km/h (3 Bft) 94,79 %
05.09.2016 02:00 16,1 C 15,7 C 14,0 C 91 % 2 lf 1014,0 hPa 0,0 l/m 0,00 h 0,00 h 5 W/m 14,3 km/h (3 Bft) 96,45 %
05.09.2016 03:00 15,8 C 15,5 C 14,0 C 94 % 9 lf 1014,3 hPa 0,2 l/m 0,00 h 0,17 h 5 W/m 13,3 km/h (3 Bft) 98,77 %
05.09.2016 04:00 15,6 C 15,4 C 13,9 C 95 % 2 lf 1014,7 hPa 0,0 l/m 0,00 h 0,00 h 5 W/m 15,7 km/h (3 Bft) 92,63 %
05.09.2016 05:00 15,4 C 15,2 C 13,8 C 95 % 3 lf 1015,1 hPa 0,0 l/m 0,00 h 0,00 h 5 W/m 12,4 km/h (3 Bft) 97,80 %
05.09.2016 06:00 15,3 C 14,8 C 13,6 C 96 % 3 lf 1015,6 hPa 0,0 l/m 0,00 h 0,00 h 7 W/m 11,0 km/h (2 Bft) 97,33 %
05.09.2016 07:00 15,1 C 15,0 C 13,6 C 96 % 4 lf 1016,4 hPa 0,0 l/m 0,70 h 0,00 h 50 W/m 12,6 km/h (3 Bft) 94,76 %
05.09.2016 08:00 15,7 C 17,9 C 15,7 C 96 % 1 lf 1016,9 hPa 0,0 l/m 0,67 h 0,00 h 164 W/m 16,7 km/h (3 Bft) 95,26 %
05.09.2016 09:00 17,0 C 20,4 C 17,3 C 91 % 0 lf 1017,6 hPa 0,0 l/m 0,50 h 0,00 h 216 W/m 17,7 km/h (3 Bft) 98,17 %
05.09.2016 10:00 18,7 C 25,9 C 21,2 C 85 % 0 lf 1018,0 hPa 0,0 l/m 0,80 h 0,00 h 485 W/m 15,3 km/h (3 Bft) 93,89 %
05.09.2016 11:00 20,2 C 26,1 C 22,8 C 79 % 0 lf 1018,4 hPa 0,0 l/m 0,57 h 0,00 h 470 W/m 14,4 km/h (3 Bft) 97,09 %
05.09.2016 12:00 21,6 C 26,5 C 23,7 C 73 % 0 lf 1018,9 hPa 0,0 l/m 0,53 h 0,00 h 385 W/m 16,1 km/h (3 Bft) 97,27 %
05.09.2016 13:00 21,3 C 23,7 C 22,3 C 73 % 0 lf 1019,1 hPa 0,0 l/m 0,17 h 0,00 h 299 W/m 12,5 km/h (3 Bft) 95,08 %
05.09.2016 14:00 21,6 C 26,6 C 23,5 C 72 % 0 lf 1019,7 hPa 0,0 l/m 0,83 h 0,00 h 439 W/m 12,5 km/h (3 Bft) 96,51 %
05.09.2016 15:00 22,5 C 29,9 C 23,0 C 69 % 0 lf 1019,9 hPa 0,0 l/m 0,87 h 0,00 h 501 W/m 12,1 km/h (2 Bft) 96,36 %
05.09.2016 16:00 22,7 C 28,1 C 21,7 C 68 % 0 lf 1020,1 hPa 0,0 l/m 0,50 h 0,00 h 327 W/m 8,2 km/h (2 Bft) 97,29 %
05.09.2016 17:00 22,7 C 25,9 C 21,5 C 67 % 0 lf 1020,3 hPa 0,0 l/m 0,77 h 0,00 h 255 W/m 9,9 km/h (2 Bft) 95,52 %
05.09.2016 18:00 22,7 C 24,0 C 20,6 C 66 % 0 lf 1020,4 hPa 0,0 l/m 1,00 h 0,00 h 190 W/m 8,1 km/h (2 Bft) 96,08 %
05.09.2016 19:00 22,1 C 21,8 C 19,2 C 67 % 0 lf 1020,7 hPa 0,0 l/m 1,00 h 0,00 h 63 W/m 5,0 km/h (1 Bft) 96,85 %
05.09.2016 20:00 20,7 C 18,2 C 15,7 C 75 % 0 lf 1021,3 hPa 0,0 l/m 0,00 h 0,00 h 10 W/m 0,0 km/h (0 Bft) 96,14 %
05.09.2016 21:00 18,3 C 16,1 C 14,1 C 82 % 1 lf 1022,1 hPa 0,0 l/m 0,00 h 0,00 h 5 W/m 0,0 km/h (0 Bft) 95,13 %
05.09.2016 22:00 16,8 C 15,0 C 13,3 C 86 % 3 lf 1022,6 hPa 0,0 l/m 0,00 h 0,00 h 5 W/m 0,0 km/h (0 Bft) 97,88 %
05.09.2016 23:00 15,7 C 14,3 C 12,8 C 89 % 11 lf 1022,9 hPa 0,0 l/m 0,00 h 0,00 h 5 W/m 0,0 km/h (0 Bft) 95,51 %
06.09.2016 00:00 14,9 C 13,9 C 12,2 C 91 % 15 lf 1023,3 hPa 0,0 l/m 0,00 h 0,00 h 5 W/m 0,0 km/h (0 Bft) 96,92 %
06.09.2016 01:00 14,2 C 13,0 C 11,8 C 92 % 15 lf 1023,6 hPa 0,0 l/m 0,00 h 0,00 h 5 W/m 0,0 km/h (0 Bft) 94,66 %
06.09.2016 02:00 13,8 C 13,2 C 11,7 C 93 % 15 lf 1023,8 hPa 0,0 l/m 0,00 h 0,00 h 5 W/m 1,7 km/h (1 Bft) 95,70 %
06.09.2016 03:00 13,4 C 12,9 C 11,2 C 95 % 15 lf 1023,9 hPa 0,0 l/m 0,00 h 0,00 h 5 W/m 2,7 km/h (1 Bft) 97,29 %
06.09.2016 04:00 12,9 C 12,5 C 10,8 C 95 % 15 lf 1024,0 hPa 0,0 l/m 0,00 h 0,00 h 4 W/m 3,6 km/h (1 Bft) 95,16 %
06.09.2016 05:00 12,8 C 12,5 C 10,9 C 96 % 15 lf 1024,2 hPa 0,0 l/m 0,00 h 0,00 h 5 W/m 5,4 km/h (1 Bft) 94,74 %
06.09.2016 06:00 12,6 C 12,2 C 10,6 C 96 % 15 lf 1024,8 hPa 0,0 l/m 0,00 h 0,00 h 10 W/m 5,8 km/h (2 Bft) 97,68 %
06.09.2016 07:00 12,5 C 12,6 C 10,9 C 97 % 15 lf 1025,2 hPa 0,0 l/m 0,77 h 0,00 h 45 W/m 7,5 km/h (2 Bft) 96,42 %
06.09.2016 08:00 13,1 C 15,1 C 11,9 C 98 % 15 lf 1025,4 hPa 0,0 l/m 1,00 h 0,00 h 199 W/m 8,1 km/h (2 Bft) 95,30 %
06.09.2016 09:00 15,5 C 22,4 C 14,5 C 98 % 4 lf 1025,5 hPa 0,0 l/m 1,00 h 0,00 h 354 W/m 10,7 km/h (2 Bft) 96,81 %
06.09.2016 10:00 19,2 C 26,0 C 22,5 C 85 % 0 lf 1025,7 hPa 0,0 l/m 1,00 h 0,00 h 513 W/m 12,8 km/h (3 Bft) 96,42 %
06.09.2016 11:00 22,2 C 27,8 C 27,0 C 73 % 0 lf 1025,6 hPa 0,0 l/m 1,00 h 0,00 h 1246 W/m 16,7 km/h (3 Bft) 96,01 %
06.09.2016 12:00 24,1 C 30,1 C 27,2 C 66 % 0 lf 1025,3 hPa 0,0 l/m 1,00 h 0,00 h 1280 W/m 17,3 km/h (3 Bft) 96,41 %
06.09.2016 13:00 25,7 C 32,3 C 24,2 C 57 % 0 lf 1025,1 hPa 0,0 l/m 1,00 h 0,00 h 1330 W/m 13,8 km/h (3 Bft) 94,62 %
06.09.2016 14:00 26,6 C 32,2 C 24,6 C 53 % 0 lf 1024,6 hPa 0,0 l/m 1,00 h 0,00 h 864 W/m 16,1 km/h (3 Bft) 97,81 %
06.09.2016 15:00 26,8 C 32,6 C 25,9 C 53 % 0 lf 1024,2 hPa 0,0 l/m 1,00 h 0,00 h 658 W/m 12,3 km/h (3 Bft) 96,22 %
06.09.2016 16:00 27,0 C 31,8 C 24,4 C 53 % 0 lf 1024,0 hPa 0,0 l/m 1,00 h 0,00 h 485 W/m 11,7 km/h (2 Bft) 93,94 %
06.09.2016 17:00 26,8 C 30,4 C 23,6 C 54 % 0 lf 1023,7 hPa 0,0 l/m 1,00 h 0,00 h 344 W/m 12,1 km/h (2 Bft) 97,59 %
06.09.2016 18:00 26,1 C 26,4 C 22,0 C 56 % 0 lf 1023,5 hPa 0,0 l/m 1,00 h 0,00 h 167 W/m 9,6 km/h (2 Bft) 96,85 %
06.09.2016 19:00 24,9 C 23,5 C 18,7 C 61 % 0 lf 1023,4 hPa 0,0 l/m 0,07 h 0,00 h 36 W/m 4,9 km/h (1 Bft) 93,82 %
06.09.2016 20:00 22,5 C 20,2 C 15,5 C 69 % 0 lf 1023,6 hPa 0,0 l/m 0,00 h 0,00 h 7 W/m 3,8 km/h (1 Bft) 97,83 %
06.09.2016 21:00 20,2 C 18,0 C 14,5 C 73 % 0 lf 1023,6 hPa 0,0 l/m 0,00 h 0,00 h 2 W/m 0,7 km/h (0 Bft) 96,64 %
06.09.2016 22:00 18,4 C 16,1 C 13,9 C 81 % 1 lf 1023,6 hPa 0,0 l/m 0,00 h 0,00 h 0 W/m 0,0 km/h (0 Bft) 94,68 %
06.09.2016 23:00 17,0 C 15,1 C 13,2 C 85 % 2 lf 1023,4 hPa 0,0 l/m 0,00 h 0,00 h 4 W/m 0,0 km/h (0 Bft) 96,86 %
07.09.2016 00:00 15,9 C 14,3 C 12,8 C 87 % 3 lf 1023,5 hPa 0,0 l/m 0,00 h 0,00 h 0 W/m 0,0 km/h (0 Bft) 96,75 %
07.09.2016 01:00 15,3 C 14,5 C 12,5 C 90 % 8 lf 1023,2 hPa 0,0 l/m 0,00 h 0,00 h 0 W/m 0,8 km/h (0 Bft) 94,83 %
07.09.2016 02:00 14,9 C 14,8 C 12,4 C 92 % 9 lf 1022,8 hPa 0,0 l/m 0,00 h 0,00 h 5 W/m 5,5 km/h (1 Bft) 96,05 %
07.09.2016 03:00 15,1 C 15,3 C 12,8 C 94 % 3 lf 1022,6 hPa 0,0 l/m 0,00 h 0,00 h 5 W/m 9,7 km/h (2 Bft) 96,50 %
07.09.2016 04:00 15,0 C 14,6 C 12,5 C 93 % 3 lf 1022,5 hPa 0,0 l/m 0,00 h 0,00 h 0 W/m 7,6 km/h (2 Bft) 95,82 %
07.09.2016 05:00 14,4 C 13,8 C 11,7 C 92 % 3 lf 1022,3 hPa 0,0 l/m 0,00 h 0,00 h 0 W/m 5,7 km/h (1 Bft) 99,15 %
07.09.2016 06:00 13,8 C 13,1 C 11,0 C 92 % 5 lf 1022,0 hPa 0,0 l/m 0,00 h 0,00 h 6 W/m 5,5 km/h (1 Bft) 93,94 %
07.09.2016 07:00 13,3 C 13,5 C 11,1 C 93 % 5 lf 1022,1 hPa 0,0 l/m 0,60 h 0,00 h 46 W/m 6,7 km/h (2 Bft) 95,94 %
07.09.2016 08:00 14,3 C 17,1 C 13,1 C 94 % 1 lf 1022,0 hPa 0,0 l/m 1,00 h 0,00 h 202 W/m 11,7 km/h (2 Bft) 97,94 %
07.09.2016 09:00 17,8 C 24,4 C 16,4 C 85 % 0 lf 1021,9 hPa 0,0 l/m 1,00 h 0,00 h 365 W/m 12,0 km/h (2 Bft) 95,82 %
07.09.2016 10:00 21,3 C 28,0 C 24,1 C 73 % 0 lf 1021,6 hPa 0,0 l/m 1,00 h 0,00 h 542 W/m 13,2 km/h (3 Bft) 94,99 %
07.09.2016 11:00 23,6 C 31,2 C 28,4 C 66 % 0 lf 1021,1 hPa 0,0 l/m 1,00 h 0,00 h 636 W/m 11,6 km/h (2 Bft) 97,93 %
07.09.2016 12:00 25,7 C 33,4 C 27,8 C 58 % 0 lf 1020,2 hPa 0,0 l/m 1,00 h 0,00 h 694 W/m 14,6 km/h (3 Bft) 96,67 %
07.09.2016 13:00 26,9 C 34,3 C 24,1 C 52 % 0 lf 1019,6 hPa 0,0 l/m 1,00 h 0,00 h 737 W/m 14,4 km/h (3 Bft) 94,03 %
07.09.2016 14:00 27,8 C 34,1 C 24,8 C 49 % 0 lf 1018,8 hPa 0,0 l/m 1,00 h 0,00 h 714 W/m 12,6 km/h (3 Bft) 97,07 %
07.09.2016 15:00 28,1 C 34,1 C 26,5 C 48 % 0 lf 1018,1 hPa 0,0 l/m 1,00 h 0,00 h 624 W/m 15,2 km/h (3 Bft) 97,40 %
07.09.2016 16:00 28,1 C 34,0 C 24,8 C 47 % 0 lf 1017,2 hPa 0,0 l/m 1,00 h 0,00 h 511 W/m 14,0 km/h (3 Bft) 95,82 %
07.09.2016 17:00 28,0 C 32,2 C 24,4 C 48 % 0 lf 1016,3 hPa 0,0 l/m 1,00 h 0,00 h 361 W/m 13,7 km/h (3 Bft) 94,89 %
07.09.2016 18:00 27,3 C 27,9 C 23,4 C 50 % 0 lf 1015,5 hPa 0,0 l/m 1,00 h 0,00 h 182 W/m 12,6 km/h (3 Bft) 97,74 %
07.09.2016 19:00 25,9 C 24,8 C 20,8 C 55 % 0 lf 1015,1 hPa 0,0 l/m 0,07 h 0,00 h 34 W/m 8,2 km/h (2 Bft) 96,29 %
07.09.2016 20:00 23,8 C 21,7 C 17,4 C 61 % 0 lf 1015,0 hPa 0,0 l/m 0,00 h 0,00 h 7 W/m 5,7 km/h (1 Bft) 93,62 %
07.09.2016 21:00 21,6 C 19,5 C 16,0 C 68 % 0 lf 1014,8 hPa 0,0 l/m 0,00 h 0,00 h 5 W/m 2,8 km/h (1 Bft) 98,35 %
07.09.2016 22:00 19,8 C 17,6 C 14,9 C 75 % 0 lf 1014,5 hPa 0,0 l/m 0,00 h 0,00 h 4 W/m 0,1 km/h (0 Bft) 95,72 %
07.09.2016 23:00 18,3 C 16,3 C 14,1 C 80 % 1 lf 1014,0 hPa 0,0 l/m 0,00 h 0,00 h 0 W/m 0,0 km/h (0 Bft) 96,28 %
08.09.2016 00:00 17,1 C 15,6 C 13,7 C 84 % 1 lf 1013,6 hPa 0,0 l/m 0,00 h 0,00 h 0 W/m 0,0 km/h (0 Bft) 95,75 %
08.09.2016 01:00 16,3 C 14,8 C 13,1 C 86 % 2 lf 1013,1 hPa 0,0 l/m 0,00 h 0,00 h 0 W/m 0,5 km/h (0 Bft) 95,73 %
08.09.2016 02:00 16,0 C 15,5 C 13,3 C 90 % 2 lf 1012,1 hPa 0,0 l/m 0,00 h 0,00 h 0 W/m 3,7 km/h (1 Bft) 96,96 %
08.09.2016 03:00 15,4 C 14,2 C 12,6 C 90 % 2 lf 1011,8 hPa 0,0 l/m 0,00 h 0,00 h 0 W/m 0,0 km/h (0 Bft) 98,01 %
08.09.2016 04:00 15,1 C 14,6 C 12,6 C 92 % 7 lf 1011,5 hPa 0,0 l/m 0,00 h 0,00 h 0 W/m 1,7 km/h (1 Bft) 92,29 %
08.09.2016 05:00 14,9 C 14,3 C 12,3 C 93 % 13 lf 1011,0 hPa 0,0 l/m 0,00 h 0,00 h 0 W/m 3,3 km/h (1 Bft) 99,00 %
08.09.2016 06:00 14,9 C 14,5 C 12,3 C 95 % 15 lf 1010,5 hPa 0,0 l/m 0,00 h 0,00 h 5 W/m 6,4 km/h (2 Bft) 97,95 %
08.09.2016 07:00 15,0 C 15,3 C 13,1 C 96 % 11 lf 1010,5 hPa 0,0 l/m 0,67 h 0,00 h 43 W/m 13,0 km/h (3 Bft) 93,89 %
08.09.2016 08:00 16,2 C 18,5 C 15,0 C 96 % 2 lf 1010,3 hPa 0,0 l/m 1,00 h 0,00 h 196 W/m 15,5 km/h (3 Bft) 96,62 %
08.09.2016 09:00 19,4 C 25,4 C 18,1 C 88 % 0 lf 1010,2 hPa 0,0 l/m 1,00 h 0,00 h 364 W/m 12,2 km/h (2 Bft) 98,54 %
08.09.2016 10:00 22,7 C 29,5 C 25,5 C 74 % 0 lf 1010,2 hPa 0,0 l/m 1,00 h 0,00 h 509 W/m 11,7 km/h (2 Bft) 93,65 %
08.09.2016 11:00 25,3 C 33,7 C 29,8 C 64 % 0 lf 1010,0 hPa 0,0 l/m 1,00 h 0,00 h 622 W/m 15,3 km/h (3 Bft) 97,21 %
08.09.2016 12:00 27,0 C 36,2 C 29,5 C 60 % 0 lf 1009,8 hPa 0,0 l/m 0,97 h 0,00 h 693 W/m 16,9 km/h (3 Bft) 96,49 %
08.09.2016 13:00 28,2 C 36,0 C 26,2 C 56 % 0 lf 1009,9 hPa 0,0 l/m 1,00 h 0,00 h 713 W/m 19,5 km/h (3 Bft) 96,58 %
08.09.2016 14:00 28,8 C 36,5 C 26,5 C 55 % 0 lf 1010,1 hPa 0,0 l/m 1,00 h 0,00 h 839 W/m 19,4 km/h (3 Bft) 96,72 %
08.09.2016 15:00 29,1 C 35,9 C 28,4 C 53 % 0 lf 1010,2 hPa 0,0 l/m 1,00 h 0,00 h 1208 W/m 18,3 km/h (3 Bft) 95,94 %
08.09.2016 16:00 29,2 C 35,5 C 26,6 C 52 % 0 lf 1010,3 hPa 0,0 l/m 1,00 h 0,00 h 1122 W/m 18,0 km/h (3 Bft) 96,44 %
08.09.2016 17:00 29,0 C 32,9 C 25,6 C 52 % 0 lf 1010,4 hPa 0,0 l/m 1,00 h 0,00 h 1002 W/m 16,5 km/h (3 Bft) 96,36 %
08.09.2016 18:00 28,0 C 28,3 C 24,2 C 54 % 0 lf 1010,6 hPa 0,0 l/m 0,87 h 0,00 h 586 W/m 15,1 km/h (3 Bft) 95,03 %
08.09.2016 19:00 26,4 C 25,2 C 21,4 C 58 % 0 lf 1011,1 hPa 0,0 l/m 0,07 h 0,00 h 29 W/m 8,7 km/h (2 Bft) 97,08 %
08.09.2016 20:00 24,3 C 22,0 C 18,3 C 66 % 0 lf 1011,7 hPa 0,0 l/m 0,00 h 0,00 h 6 W/m 1,5 km/h (1 Bft) 94,59 %
08.09.2016 21:00 22,2 C 20,9 C 17,9 C 73 % 0 lf 1012,6 hPa 0,0 l/m 0,00 h 0,00 h 0 W/m 8,8 km/h (2 Bft) 98,00 %
08.09.2016 22:00 21,4 C 20,6 C 18,3 C 79 % 0 lf 1013,6 hPa 0,0 l/m 0,00 h 0,00 h 5 W/m 14,4 km/h (3 Bft) 94,88 %
08.09.2016 23:00 20,6 C 19,8 C 17,8 C 78 % 0 lf 1014,3 hPa 0,0 l/m 0,00 h 0,00 h 5 W/m 11,1 km/h (2 Bft) 95,80 %
09.09.2016 00:00 19,9 C 19,7 C 17,9 C 79 % 0 lf 1015,2 hPa 0,0 l/m 0,00 h 0,00 h 5 W/m 15,1 km/h (3 Bft) 97,60 %
09.09.2016 01:00 19,7 C 19,4 C 17,9 C 79 % 0 lf 1015,5 hPa 0,0 l/m 0,00 h 0,00 h 5 W/m 10,7 km/h (2 Bft) 95,40 %
09.09.2016 02:00 19,1 C 18,6 C 17,0 C 78 % 0 lf 1015,7 hPa 0,0 l/m 0,00 h 0,00 h 5 W/m 14,7 km/h (3 Bft) 94,98 %
09.09.2016 03:00 17,4 C 16,4 C 14,7 C 79 % 0 lf 1016,4 hPa 0,0 l/m 0,00 h 0,00 h 5 W/m 13,2 km/h (3 Bft) 98,50 %
09.09.2016 04:00 16,0 C 15,1 C 13,6 C 83 % 0 lf 1016,5 hPa 0,0 l/m 0,00 h 0,00 h 4 W/m 11,0 km/h (2 Bft) 95,73 %
09.09.2016 05:00 15,0 C 14,3 C 12,8 C 86 % 1 lf 1016,7 hPa 0,0 l/m 0,00 h 0,00 h 4 W/m 8,8 km/h (2 Bft) 93,79 %
09.09.2016 06:00 14,8 C 15,0 C 13,8 C 89 % 1 lf 1017,0 hPa 0,0 l/m 0,00 h 0,00 h 47 W/m 8,4 km/h (2 Bft) 98,10 %
09.09.2016 07:00 15,3 C 15,7 C 14,5 C 89 % 1 lf 1017,5 hPa 0,0 l/m 0,00 h 0,00 h 22 W/m 9,9 km/h (2 Bft) 96,34 %
09.09.2016 08:00 15,7 C 16,5 C 15,4 C 88 % 0 lf 1017,8 hPa 0,0 l/m 0,00 h 0,00 h 77 W/m 10,4 km/h (2 Bft) 96,05 %
09.09.2016 09:00 16,5 C 18,1 C 17,3 C 87 % 0 lf 1018,1 hPa 0,0 l/m 0,00 h 0,00 h 155 W/m 9,2 km/h (2 Bft) 96,74 %
09.09.2016 10:00 17,7 C 19,5 C 19,0 C 85 % 0 lf 1018,6 hPa 0,0 l/m 0,97 h 0,00 h 373 W/m 10,4 km/h (2 Bft) 96,24 %
09.09.2016 11:00 18,9 C 22,7 C 22,1 C 81 % 0 lf 1018,5 hPa 0,0 l/m 1,00 h 0,00 h 441 W/m 11,7 km/h (2 Bft) 96,98 %
09.09.2016 12:00 20,0 C 24,7 C 21,8 C 77 % 0 lf 1018,2 hPa 0,0 l/m 0,53 h 0,00 h 494 W/m 10,7 km/h (2 Bft) 94,96 %
09.09.2016 13:00 21,9 C 29,8 C 21,6 C 71 % 0 lf 1018,0 hPa 0,0 l/m 0,93 h 0,00 h 913 W/m 11,6 km/h (2 Bft) 97,93 %
09.09.2016 14:00 23,6 C 31,5 C 21,7 C 64 % 0 lf 1017,7 hPa 0,0 l/m 0,97 h 0,00 h 670 W/m 11,7 km/h (2 Bft) 95,09 %
09.09.2016 15:00 24,2 C 31,2 C 23,8 C 60 % 0 lf 1017,2 hPa 0,0 l/m 1,00 h 0,00 h 727 W/m 9,0 km/h (2 Bft) 95,72 %
09.09.2016 16:00 24,2 C 31,5 C 21,5 C 58 % 0 lf 1016,8 hPa 0,0 l/m 1,00 h 0,00 h 1104 W/m 7,7 km/h (2 Bft) 97,72 %
09.09.2016 17:00 24,4 C 30,0 C 20,8 C 55 % 0 lf 1016,4 hPa 0,0 l/m 1,00 h 0,00 h 1086 W/m 6,9 km/h (2 Bft) 96,58 %
09.09.2016 18:00 24,0 C 24,3 C 19,5 C 53 % 0 lf 1016,2 hPa 0,0 l/m 1,00 h 0,00 h 464 W/m 6,6 km/h (2 Bft) 94,88 %
09.09.2016 19:00 22,5 C 20,6 C 16,8 C 61 % 0 lf 1016,2 hPa 0,0 l/m 0,17 h 0,00 h 29 W/m 2,1 km/h (1 Bft) 98,07 %
09.09.2016 20:00 19,9 C 17,2 C 14,2 C 71 % 0 lf 1016,6 hPa 0,0 l/m 0,00 h 0,00 h 6 W/m 0,0 km/h (0 Bft) 95,37 %
09.09.2016 21:00 17,5 C 15,3 C 13,0 C 78 % 1 lf 1017,0 hPa 0,0 l/m 0,00 h 0,00 h 5 W/m 0,7 km/h (0 Bft) 96,94 %
09.09.2016 22:00 16,0 C 14,2 C 12,2 C 82 % 1 lf 1016,9 hPa 0,0 l/m 0,00 h 0,00 h 5 W/m 0,0 km/h (0 Bft) 96,01 %
09.09.2016 23:00 15,0 C 13,7 C 11,9 C 87 % 2 lf 1017,0 hPa 0,0 l/m 0,00 h 0,00 h 4 W/m 1,2 km/h (1 Bft) 95,02 %
10.09.2016 00:00 14,1 C 12,7 C 11,1 C 88 % 2 lf 1016,8 hPa 0,0 l/m 0,00 h 0,00 h 0 W/m 0,0 km/h (0 Bft) 97,16 %
10.09.2016 01:00 13,4 C 12,3 C 10,9 C 90 % 5 lf 1016,8 hPa 0,0 l/m 0,00 h 0,00 h 0 W/m 0,1 km/h (0 Bft) 98,15 %
10.09.2016 02:00 12,8 C 11,6 C 10,2 C 91 % 8 lf 1016,8 hPa 0,0 l/m 0,00 h 0,00 h 0 W/m 0,0 km/h (0 Bft) 92,31 %
10.09.2016 03:00 12,3 C 11,2 C 10,0 C 91 % 14 lf 1016,7 hPa 0,0 l/m 0,00 h 0,00 h 0 W/m 0,0 km/h (0 Bft) 96,86 %
10.09.2016 04:00 11,8 C 11,1 C 9,4 C 92 % 15 lf 1016,5 hPa 0,0 l/m 0,00 h 0,00 h 0 W/m 0,3 km/h (0 Bft) 96,84 %
10.09.2016 05:00 11,5 C 10,7 C 9,4 C 93 % 15 lf 1016,3 hPa 0,0 l/m 0,00 h 0,00 h 0 W/m 0,0 km/h (0 Bft) 95,18 %
10.09.2016 06:00 11,2 C 10,6 C 9,1 C 93 % 15 lf 1016,3 hPa 0,0 l/m 0,00 h 0,00 h 4 W/m 0,6 km/h (0 Bft) 96,52 %
10.09.2016 07:00 11,2 C 11,2 C 9,4 C 94 % 15 lf 1016,4 hPa 0,0 l/m 0,57 h 0,00 h 36 W/m 2,1 km/h (1 Bft) 95,84 %
10.09.2016 08:00 12,2 C 15,0 C 11,1 C 96 % 13 lf 1016,4 hPa 0,0 l/m 1,00 h 0,00 h 169 W/m 3,8 km/h (1 Bft) 96,33 %
10.09.2016 09:00 15,7 C 23,4 C 15,0 C 94 % 0 lf 1016,4 hPa 0,0 l/m 1,00 h 0,00 h 341 W/m 5,6 km/h (1 Bft) 97,36 %
10.09.2016 10:00 19,8 C 26,2 C 23,0 C 76 % 0 lf 1016,3 hPa 0,0 l/m 1,00 h 0,00 h 487 W/m 8,5 km/h (2 Bft) 94,72 %
10.09.2016 11:00 23,1 C 31,9 C 28,3 C 65 % 0 lf 1016,0 hPa 0,0 l/m 1,00 h 0,00 h 603 W/m 7,1 km/h (2 Bft) 95,71 %
10.09.2016 12:00 25,3 C 33,1 C 27,9 C 56 % 0 lf 1015,6 hPa 0,0 l/m 0,97 h 0,00 h 673 W/m 10,3 km/h (2 Bft) 97,45 %
10.09.2016 13:00 26,9 C 35,3 C 24,2 C 51 % 0 lf 1015,2 hPa 0,0 l/m 1,00 h 0,00 h 696 W/m 10,0 km/h (2 Bft) 95,14 %
10.09.2016 14:00 27,5 C 35,8 C 25,1 C 49 % 0 lf 1014,6 hPa 0,0 l/m 1,00 h 0,00 h 663 W/m 14,5 km/h (3 Bft) 94,39 %
10.09.2016 15:00 27,8 C 35,0 C 27,0 C 48 % 0 lf 1014,2 hPa 0,0 l/m 1,00 h 0,00 h 608 W/m 15,5 km/h (3 Bft) 98,16 %
10.09.2016 16:00 27,7 C 34,0 C 24,6 C 47 % 0 lf 1013,9 hPa 0,0 l/m 1,00 h 0,00 h 473 W/m 14,2 km/h (3 Bft) 96,23 %
10.09.2016 17:00 27,4 C 32,2 C 23,6 C 48 % 0 lf 1013,6 hPa 0,0 l/m 1,00 h 0,00 h 327 W/m 10,2 km/h (2 Bft) 93,81 %
10.09.2016 18:00 26,2 C 26,1 C 21,3 C 51 % 0 lf 1013,4 hPa 0,0 l/m 0,43 h 0,00 h 114 W/m 8,3 km/h (2 Bft) 98,15 %
10.09.2016 19:00 24,3 C 22,6 C 18,4 C 60 % 0 lf 1013,5 hPa 0,0 l/m 0,57 h 0,00 h 36 W/m 0,0 km/h (0 Bft) 96,50 %
10.09.2016 20:00 22,0 C 19,7 C 16,2 C 68 % 0 lf 1013,9 hPa 0,0 l/m 0,00 h 0,00 h 5 W/m 0,1 km/h (0 Bft) 95,59 %
10.09.2016 21:00 19,7 C 17,6 C 14,8 C 77 % 1 lf 1014,1 hPa 0,0 l/m 0,00 h 0,00 h 5 W/m 0,0 km/h (0 Bft) 95,87 %
10.09.2016 22:00 18,2 C 16,6 C 14,2 C 83 % 2 lf 1014,3 hPa 0,0 l/m 0,00 h 0,00 h 5 W/m 0,0 km/h (0 Bft) 97,51 %
10.09.2016 23:00 17,0 C 15,9 C 13,7 C 87 % 3 lf 1014,5 hPa 0,0 l/m 0,00 h 0,00 h 5 W/m 0,1 km/h (0 Bft) 95,88 %
11.09.2016 00:00 16,2 C 15,6 C 13,3 C 90 % 3 lf 1014,6 hPa 0,0 l/m 0,00 h 0,00 h 5 W/m 0,2 km/h (0 Bft) 96,51 %
11.09.2016 01:00 15,6 C 15,1 C 12,8 C 91 % 3 lf 1014,7 hPa 0,0 l/m 0,00 h 0,00 h 5 W/m 2,2 km/h (1 Bft) 95,08 %
11.09.2016 02:00 15,3 C 15,6 C 12,8 C 92 % 2 lf 1014,8 hPa 0,0 l/m 0,00 h 0,00 h 5 W/m 6,6 km/h (2 Bft) 97,57 %
11.09.2016 03:00 15,4 C 15,8 C 13,0 C 91 % 2 lf 1014,7 hPa 0,0 l/m 0,00 h 0,00 h 0 W/m 6,3 km/h (2 Bft) 96,54 %
11.09.2016 04:00 15,3 C 14,9 C 12,2 C 89 % 2 lf 1014,9 hPa 0,0 l/m 0,00 h 0,00 h 4 W/m 3,0 km/h (1 Bft) 95,56 %
11.09.2016 05:00 15,0 C 14,8 C 12,7 C 89 % 2 lf 1015,0 hPa 0,0 l/m 0,00 h 0,00 h 0 W/m 5,3 km/h (1 Bft) 95,94 %
11.09.2016 06:00 14,7 C 14,4 C 12,5 C 90 % 2 lf 1015,2 hPa 0,0 l/m 0,00 h 0,00 h 5 W/m 5,8 km/h (2 Bft) 97,10 %
11.09.2016 07:00 14,4 C 14,5 C 12,4 C 90 % 2 lf 1015,8 hPa 0,0 l/m 0,17 h 0,00 h 30 W/m 3,0 km/h (1 Bft) 96,65 %
11.09.2016 08:00 14,8 C 18,0 C 14,9 C 92 % 1 lf 1016,4 hPa 0,0 l/m 0,63 h 0,00 h 125 W/m 1,5 km/h (1 Bft) 96,02 %
11.09.2016 09:00 17,1 C 20,9 C 18,5 C 90 % 0 lf 1017,0 hPa 0,0 l/m 0,40 h 0,00 h 184 W/m 2,5 km/h (1 Bft) 95,43 %
11.09.2016 10:00 20,1 C 26,3 C 22,4 C 83 % 0 lf 1017,7 hPa 0,0 l/m 1,00 h 0,00 h 343 W/m 3,6 km/h (1 Bft) 98,16 %
11.09.2016 11:00 22,1 C 26,8 C 23,4 C 78 % 0 lf 1017,9 hPa 0,0 l/m 0,27 h 0,00 h 297 W/m 5,5 km/h (1 Bft) 94,40 %
11.09.2016 12:00 22,7 C 26,1 C 23,5 C 78 % 0 lf 1018,0 hPa 0,0 l/m 0,10 h 0,00 h 287 W/m 6,8 km/h (2 Bft) 96,73 %
11.09.2016 13:00 23,1 C 26,3 C 24,0 C 76 % 0 lf 1018,0 hPa 0,0 l/m 0,00 h 0,00 h 280 W/m 6,4 km/h (2 Bft) 97,37 %
11.09.2016 14:00 23,4 C 27,1 C 24,4 C 75 % 0 lf 1017,8 hPa 0,0 l/m 0,67 h 0,00 h 339 W/m 6,2 km/h (2 Bft) 94,09 %
11.09.2016 15:00 24,1 C 28,8 C 24,5 C 73 % 0 lf 1017,5 hPa 0,0 l/m 1,00 h 0,00 h 366 W/m 7,7 km/h (2 Bft) 96,87 %
11.09.2016 16:00 24,9 C 30,3 C 25,3 C 69 % 0 lf 1017,2 hPa 0,0 l/m 1,00 h 0,00 h 435 W/m 9,0 km/h (2 Bft) 98,23 %
11.09.2016 17:00 26,2 C 30,5 C 25,5 C 64 % 0 lf 1016,7 hPa 0,0 l/m 1,00 h 0,00 h 426 W/m 12,8 km/h (3 Bft) 94,18 %
11.09.2016 18:00 25,9 C 26,8 C 24,2 C 63 % 0 lf 1016,5 hPa 0,0 l/m 1,00 h 0,00 h 216 W/m 13,0 km/h (3 Bft) 96,76 %
11.09.2016 19:00 24,9 C 24,3 C 21,8 C 64 % 0 lf 1016,5 hPa 0,0 l/m 0,80 h 0,00 h 59 W/m 9,6 km/h (2 Bft) 97,42 %
11.09.2016 20:00 23,4 C 21,4 C 18,5 C 70 % 0 lf 1016,7 hPa 0,0 l/m 0,00 h 0,00 h 13 W/m 1,0 km/h (0 Bft) 96,52 %
11.09.2016 21:00 21,3 C 19,2 C 16,6 C 77 % 1 lf 1016,9 hPa 0,0 l/m 0,00 h 0,00 h 0 W/m 0,0 km/h (0 Bft) 95,55 %
11.09.2016 22:00 19,6 C 18,2 C 15,6 C 82 % 1 lf 1017,0 hPa 0,0 l/m 0,00 h 0,00 h 0 W/m 0,0 km/h (0 Bft) 95,52 %
11.09.2016 23:00 18,5 C 16,7 C 14,8 C 85 % 2 lf 1017,1 hPa 0,0 l/m 0,00 h 0,00 h 0 W/m 0,0 km/h (0 Bft) 96,91 %
Min-Datum _ 10.09.16 10.09.16 10.09.16 10.09.16 05.09.16 08.09.16 - - - - 05.09.16 10.09.16
_ Min-Zeit 06:42 05:50 06:10 16:12 08:54 12:24 - - - - 19:58 04:44
Minimum _ 11,1 C 10,0 C 8,9 C 45 % 0 lf 1009,7 hPa - - - - 0,0 km/h (0 Bft) 72,73 %
Max-Datum _ 08.09.16 08.09.16 08.09.16 06.09.16 05.09.16 06.09.16 05.09.16 05.09.16 05.09.16 09.09.16 08.09.16 05.09.16
_ Max-Zeit 15:56 14:00 12:16 08:28 00:05 10:56 03:14 07:08 00:00 13:04 14:42 00:02
Maximum _ 29,3 C 38,9 C 31,7 C 98 % 15 lf 1025,8 hPa 0,2 l/m 0,03 h 0,03 h 1512 W/m 33,5 km/h
W-SW (5 Bft)
100,00 %
Durchschnitt _ 19,8 C 21,6 C 17,9 C 77 % 3 lf 1017,4 hPa #0,2 l/m #72:06 h #32 min. 281 W/m 7,9 km/h (2 Bft) 96,21 %
© 2016 W. Hausmann